Novinger, MO (63559)

11:32 AM CST on December 09, 2016 (GMT -0600)
Mystic Plains COA | | Change Station

Elev 984 ft 40.12 °N, 92.79 °W | Updated 17 seconds ago

Partly Cloudy
Partly Cloudy
23.4 °F
Feels Like 16 °F
N
6.0
Wind Variable Wind from NW
Gusts 13.0 mph

Today
High -- | Low -- °F
--% Chance of Precip.
Yesterday
High -- | Low -- °F
Precip. -- in
Pressure 30.70 in
Visibility 10.0 miles
Clouds Clear
Windchill 16 °F
Dew Point 15 °F
Humidity 69%
Rainfall 0.00 in
Snow Depth Not available.
7:22 AM 4:44 PM
Waxing Gibbous, 75% visible
METAR KIRK 091655Z AUTO 31005KT 10SM CLR M07/M11 A3063 RMK AO2 SLP394 T10671111
Pressure 30.70 in
Visibility 10.0 miles
Clouds Clear
Windchill 16 °F
Dew Point 15 °F
Humidity 69%
Rainfall 0.00 in
Snow Depth Not available.
7:22 AM 4:44 PM
Waxing Gibbous, 75% visible
METAR KIRK 091655Z AUTO 31005KT 10SM CLR M07/M11 A3063 RMK AO2 SLP394 T10671111

10-Day Weather Forecast

Almanac

Astronomy

Dec. 09, 2016 Rise Set
Actual Time
Civil Twilight
Nautical Twilight
Astronomical Twilight
Moon
Length of Visible Light
Length of Day
Tomorrow will be .
, % of the Moon is Illuminated

Today's Extremes

State Highs State Lows

Community

WunderPhotos

Upload Photos

1,956,462 photos uploaded!

WunderBlog® & News

Nearby

Air Quality

  Air Quality AQ Index Pollutant
Not available.

Snow Depth

Station Depth Elevation

Earthquake Activity

City Distance Mag. Time & Date
Minimum magnitude displayed is 2.5.

Coastal Water Temperatures

Place Temperature

Stations

Nearby Weather Stations

Station Location Temp. Windchill Dew Point Humidity Wind Precip. Elev Updated Type
                   

Watches & Warnings

There are currently no watches in effect.